Time;durP1;ratioP1;P1;durP2;ratioP2;P2;SDS_P1;SDS_P2;PMS_P1;PMS_P2;Temp;Humidity;BMP_temperature;BMP_pressure;BME280_temperature;BME280_humidity;BME280_pressure;Samples;Min_cycle;Max_cycle;Signal;HPM_P1;HPM_P2
2021/12/10 00:00:56;;;;;;;5.35;1.85;;;;;;;-0.75;100.00;94354.97;5020164;28;20103;-74
2021/12/10 00:03:28;;;;;;;4.10;1.75;;;;;;;-0.77;100.00;94349.25;5010553;28;20041;-74
2021/12/10 00:06:00;;;;;;;4.50;2.00;;;;;;;-0.75;100.00;94347.22;5015599;28;20439;-75
2021/12/10 00:08:29;;;;;;;10.40;2.00;;;;;;;-0.79;100.00;94346.09;5006966;28;20038;-73
2021/12/10 00:10:57;;;;;;;11.80;1.88;;;;;;;-0.83;100.00;94339.81;5010455;28;20053;-74
2021/12/10 00:13:23;;;;;;;7.25;2.30;;;;;;;-0.82;100.00;94336.22;5010009;28;20219;-74
2021/12/10 00:15:53;;;;;;;7.38;2.10;;;;;;;-0.82;100.00;94331.06;5009648;28;20042;-74
2021/12/10 00:18:19;;;;;;;6.38;2.65;;;;;;;-0.85;100.00;94326.34;5024703;28;20037;-74
2021/12/10 00:20:47;;;;;;;7.05;2.00;;;;;;;-0.84;100.00;94322.75;5002371;28;20064;-74
2021/12/10 00:23:16;;;;;;;4.82;2.10;;;;;;;-0.89;100.00;94315.66;5012371;28;20104;-74
2021/12/10 00:25:47;;;;;;;5.43;2.10;;;;;;;-0.87;100.00;94304.09;5005293;28;20068;-74
2021/12/10 00:28:22;;;;;;;7.68;2.28;;;;;;;-0.85;100.00;94295.34;5019622;28;20054;-74
2021/12/10 00:31:19;;;;;;;7.28;2.25;;;;;;;-0.88;100.00;94302.56;5013546;28;20509;-74
2021/12/10 00:33:48;;;;;;;9.23;2.42;;;;;;;-0.88;100.00;94296.59;5013397;28;20069;-74
2021/12/10 00:36:14;;;;;;;6.80;1.83;;;;;;;-0.88;100.00;94291.41;5007238;28;20061;-73
2021/12/10 00:38:39;;;;;;;4.65;1.90;;;;;;;-0.89;100.00;94295.81;5006668;28;20291;-74
2021/12/10 00:41:06;;;;;;;8.63;2.50;;;;;;;-0.88;100.00;94281.88;5010202;28;20498;-74
2021/12/10 00:43:33;;;;;;;6.05;2.20;;;;;;;-0.92;100.00;94280.78;5009014;28;20045;-74
2021/12/10 00:45:59;;;;;;;5.05;1.90;;;;;;;-0.85;100.00;94274.69;5006973;28;20046;-73
2021/12/10 00:48:24;;;;;;;6.68;1.92;;;;;;;-0.86;100.00;94279.06;4999396;28;20099;-73
2021/12/10 00:50:54;;;;;;;4.45;1.73;;;;;;;-0.85;100.00;94266.94;5018299;28;20046;-74
2021/12/10 00:53:20;;;;;;;6.53;2.28;;;;;;;-0.84;100.00;94268.50;5016568;28;20469;-74
2021/12/10 00:55:46;;;;;;;9.23;2.22;;;;;;;-0.87;100.00;94257.59;5009948;28;20652;-74
2021/12/10 00:58:12;;;;;;;7.63;1.85;;;;;;;-0.93;100.00;94250.78;5021835;28;20045;-74
2021/12/10 01:00:42;;;;;;;3.95;1.80;;;;;;;-1.03;100.00;94252.34;5015847;28;20087;-73
2021/12/10 01:03:11;;;;;;;5.32;1.77;;;;;;;-1.09;100.00;94243.75;5014784;28;20123;-74
2021/12/10 01:05:39;;;;;;;7.35;2.00;;;;;;;-0.93;100.00;94237.09;5002215;28;20042;-73
2021/12/10 01:08:05;;;;;;;9.98;2.20;;;;;;;-0.96;100.00;94238.31;4993452;28;20484;-73
2021/12/10 01:11:04;;;;;;;5.47;1.92;;;;;;;-0.95;100.00;94234.75;5006436;28;20037;-73
2021/12/10 01:13:33;;;;;;;4.38;1.88;;;;;;;-1.03;100.00;94227.34;5005746;28;20116;-74
2021/12/10 01:24:50;;;;;;;5.95;2.03;;;;;;;-1.14;100.00;94207.50;5009159;28;20411;-74
2021/12/10 01:27:29;;;;;;;9.25;2.45;;;;;;;-1.13;100.00;94199.50;4991121;28;20042;-73
2021/12/10 01:29:58;;;;;;;3.88;2.00;;;;;;;-1.14;100.00;94192.00;5012010;28;20038;-73
2021/12/10 01:32:28;;;;;;;6.18;1.88;;;;;;;-1.17;100.00;94200.19;5015934;28;20065;-73
2021/12/10 01:34:54;;;;;;;6.10;2.38;;;;;;;-1.23;100.00;94187.19;5015448;28;20395;-73
2021/12/10 01:37:20;;;;;;;6.18;2.42;;;;;;;-1.30;100.00;94176.19;5016377;28;20046;-73
2021/12/10 01:39:46;;;;;;;3.25;2.00;;;;;;;-1.32;100.00;94178.22;4993479;28;20033;-73
2021/12/10 01:42:17;;;;;;;7.20;2.28;;;;;;;-1.33;100.00;94176.66;5019250;28;20050;-72
2021/12/10 01:44:47;;;;;;;4.70;2.20;;;;;;;-1.42;100.00;94172.88;5014611;28;20522;-73
2021/12/10 01:47:16;;;;;;;7.60;2.00;;;;;;;-1.43;100.00;94166.13;4993115;28;20050;-74
2021/12/10 01:49:43;;;;;;;5.95;1.95;;;;;;;-1.49;100.00;94162.66;4990925;28;20034;-73
2021/12/10 01:52:11;;;;;;;10.35;2.55;;;;;;;-1.49;100.00;94156.72;5008696;28;20049;-74
2021/12/10 01:54:40;;;;;;;6.82;2.25;;;;;;;-1.62;100.00;94148.22;5008554;28;20073;-74
2021/12/10 01:57:07;;;;;;;7.85;2.20;;;;;;;-1.72;100.00;94142.84;5007418;28;20504;-73
2021/12/10 01:59:35;;;;;;;5.72;2.30;;;;;;;-1.80;100.00;94130.28;5008297;28;20050;-73
2021/12/10 02:02:06;;;;;;;5.85;2.30;;;;;;;-1.71;100.00;94123.78;5008260;28;20515;-74
2021/12/10 02:04:34;;;;;;;6.65;2.17;;;;;;;-1.70;100.00;94122.75;5008120;28;20042;-73
2021/12/10 02:07:00;;;;;;;5.10;2.55;;;;;;;-1.72;100.00;94116.25;5005473;28;20057;-73
2021/12/10 02:09:26;;;;;;;7.10;1.88;;;;;;;-1.74;100.00;94113.88;5004562;28;20042;-73
2021/12/10 02:11:52;;;;;;;4.03;2.40;;;;;;;-1.75;100.00;94112.34;5011948;28;20072;-73
2021/12/10 02:14:18;;;;;;;5.25;1.95;;;;;;;-1.81;100.00;94108.06;5008434;28;20080;-73
2021/12/10 02:16:43;;;;;;;8.05;2.10;;;;;;;-1.83;100.00;94099.78;5000687;28;20049;-74
2021/12/10 02:19:11;;;;;;;8.57;2.15;;;;;;;-1.92;100.00;94092.38;5007704;28;20042;-74
2021/12/10 02:21:39;;;;;;;5.07;1.83;;;;;;;-1.98;100.00;94088.13;5007898;28;20041;-73
2021/12/10 02:24:06;;;;;;;5.07;2.10;;;;;;;-2.06;100.00;94075.59;5010278;28;20652;-74
2021/12/10 02:26:36;;;;;;;5.35;2.30;;;;;;;-2.11;100.00;94078.06;4998353;28;20053;-73
2021/12/10 02:29:04;;;;;;;4.40;2.08;;;;;;;-2.14;100.00;94068.19;4993255;28;20046;-74
2021/12/10 02:31:30;;;;;;;5.80;2.40;;;;;;;-2.03;100.00;94059.66;5008326;28;20046;-73
2021/12/10 02:33:56;;;;;;;5.13;2.08;;;;;;;-2.09;100.00;94051.03;4989731;28;20109;-74
2021/12/10 02:36:24;;;;;;;6.82;2.05;;;;;;;-2.13;100.00;94044.00;5007624;28;20052;-73
2021/12/10 02:38:52;;;;;;;5.28;1.75;;;;;;;-2.12;100.00;94041.19;5008784;28;20044;-74
2021/12/10 02:41:22;;;;;;;4.90;2.10;;;;;;;-2.22;100.00;94024.75;5019167;28;20100;-74
2021/12/10 02:43:47;;;;;;;3.65;2.10;;;;;;;-2.22;100.00;94024.75;5007618;28;20415;-75
2021/12/10 02:46:14;;;;;;;2.72;1.67;;;;;;;-2.34;100.00;94009.25;4988499;28;20046;-73
2021/12/10 02:48:40;;;;;;;4.43;1.75;;;;;;;-2.30;100.00;94006.03;4995878;28;20091;-74
2021/12/10 02:51:07;;;;;;;3.03;1.73;;;;;;;-2.36;100.00;94004.34;5009900;28;20091;-74
2021/12/10 02:53:41;;;;;;;7.57;1.88;;;;;;;-2.36;100.00;93995.84;4993117;28;20041;-73
2021/12/10 02:56:08;;;;;;;5.60;1.77;;;;;;;-2.55;100.00;93995.19;5009548;28;20810;-73
2021/12/10 02:58:33;;;;;;;4.20;1.92;;;;;;;-2.85;100.00;93990.91;5011890;28;20042;-74
2021/12/10 03:01:14;;;;;;;3.85;1.73;;;;;;;-3.00;100.00;93986.97;5011277;28;20517;-73
2021/12/10 03:03:41;;;;;;;4.15;1.95;;;;;;;-3.09;100.00;93980.56;5013215;28;20046;-75
2021/12/10 03:06:11;;;;;;;6.38;1.90;;;;;;;-3.23;100.00;93974.84;4995432;28;20106;-73
2021/12/10 03:08:45;;;;;;;3.60;1.90;;;;;;;-3.26;100.00;93980.44;4981382;28;20120;-73
2021/12/10 03:11:13;;;;;;;7.32;1.92;;;;;;;-3.03;100.00;93973.75;5006994;28;20073;-74
2021/12/10 03:13:40;;;;;;;8.70;2.03;;;;;;;-2.82;100.00;93980.16;5008240;28;20042;-75
2021/12/10 03:16:06;;;;;;;2.97;1.60;;;;;;;-2.64;100.00;93982.63;5011211;28;20041;-73
2021/12/10 03:18:34;;;;;;;4.75;1.50;;;;;;;-2.62;100.00;93980.59;5010781;28;20496;-75
2021/12/10 03:21:00;;;;;;;2.83;1.60;;;;;;;-2.63;100.00;93963.59;5009750;28;20042;-73
2021/12/10 03:23:27;;;;;;;3.80;1.70;;;;;;;-2.64;100.00;93956.88;5010546;28;20053;-76
2021/12/10 03:25:52;;;;;;;3.83;1.60;;;;;;;-2.71;100.00;93956.22;5011432;28;20495;-74
2021/12/10 03:28:18;;;;;;;2.17;1.27;;;;;;;-2.73;100.00;93963.38;4999057;28;20042;-72
2021/12/10 03:30:48;;;;;;;2.83;1.50;;;;;;;-2.77;100.00;93951.97;5010224;28;20696;-73
2021/12/10 03:33:15;;;;;;;1.98;1.30;;;;;;;-2.81;100.00;93950.84;5018621;28;20049;-74
2021/12/10 03:35:44;;;;;;;7.35;1.50;;;;;;;-2.79;100.00;93953.97;4998786;28;20042;-74
2021/12/10 03:38:16;;;;;;;3.38;1.75;;;;;;;-2.96;100.00;93941.78;4999444;28;20524;-73
2021/12/10 03:40:42;;;;;;;3.47;1.20;;;;;;;-2.96;100.00;93940.97;5010884;28;20050;-77
2021/12/10 03:43:10;;;;;;;2.25;1.30;;;;;;;-2.89;100.00;93923.63;5011604;28;20053;-74
2021/12/10 03:45:39;;;;;;;1.88;1.40;;;;;;;-2.89;100.00;93920.28;5007210;28;20077;-74
2021/12/10 03:48:12;;;;;;;2.20;1.30;;;;;;;-2.98;100.00;93936.03;5012213;28;20533;-75
2021/12/10 03:50:39;;;;;;;4.45;1.50;;;;;;;-3.00;100.00;93922.63;5015838;28;20487;-74
2021/12/10 03:53:06;;;;;;;5.38;1.30;;;;;;;-2.93;100.00;93916.56;5013627;28;20048;-74
2021/12/10 03:55:32;;;;;;;3.72;1.40;;;;;;;-2.98;100.00;93905.16;5004062;28;20451;-75
2021/12/10 03:57:58;;;;;;;3.40;1.33;;;;;;;-3.00;100.00;93901.25;5015078;28;20041;-75
2021/12/10 04:00:28;;;;;;;3.35;1.20;;;;;;;-3.11;100.00;93895.09;5020012;28;20050;-74
2021/12/10 04:02:54;;;;;;;3.05;1.38;;;;;;;-3.04;100.00;93893.19;5013360;28;20049;-74
2021/12/10 04:05:20;;;;;;;4.75;1.60;;;;;;;-3.04;100.00;93893.19;5002889;28;20058;-73
2021/12/10 04:07:45;;;;;;;1.73;1.05;;;;;;;-3.07;100.00;93891.06;5008421;28;20045;-73
2021/12/10 04:10:13;;;;;;;2.28;1.15;;;;;;;-3.13;100.00;93897.88;5019215;28;20084;-73
2021/12/10 04:12:39;;;;;;;3.45;1.27;;;;;;;-3.16;100.00;93882.09;5013367;28;20038;-73
2021/12/10 04:15:07;;;;;;;2.38;1.40;;;;;;;-3.17;100.00;93880.56;5009820;28;20453;-73
2021/12/10 04:17:33;;;;;;;2.42;1.40;;;;;;;-3.19;100.00;93878.22;5012431;28;20418;-73
2021/12/10 04:19:59;;;;;;;2.05;1.27;;;;;;;-3.22;100.00;93872.72;5009979;28;20033;-73
2021/12/10 04:22:32;;;;;;;2.55;1.38;;;;;;;-3.31;100.00;93855.03;5017015;28;20038;-73
2021/12/10 04:25:00;;;;;;;1.65;1.15;;;;;;;-3.33;100.00;93851.91;5016752;28;20042;-73
2021/12/10 04:27:26;;;;;;;2.97;1.30;;;;;;;-3.31;100.00;93855.03;5013137;28;20694;-74
2021/12/10 04:29:56;;;;;;;1.85;1.25;;;;;;;-3.33;100.00;93851.91;5003148;28;20034;-73
2021/12/10 04:32:23;;;;;;;1.83;1.38;;;;;;;-3.34;100.00;93850.34;5003497;28;20046;-73
2021/12/10 04:34:49;;;;;;;2.88;1.20;;;;;;;-3.34;100.00;93845.19;4990610;28;20046;-73
2021/12/10 04:37:15;;;;;;;3.38;1.27;;;;;;;-3.37;100.00;93840.50;5003910;28;20042;-73
2021/12/10 04:39:46;;;;;;;1.70;1.10;;;;;;;-3.38;100.00;93844.06;4992090;28;20575;-73
2021/12/10 04:42:13;;;;;;;1.70;1.20;;;;;;;-3.41;100.00;93829.09;5005059;28;20053;-73
2021/12/10 04:44:39;;;;;;;3.03;1.30;;;;;;;-3.47;100.00;93829.22;5009705;28;20052;-73
2021/12/10 04:47:05;;;;;;;1.35;1.02;;;;;;;-3.43;100.00;93830.31;4994030;28;20038;-73
2021/12/10 04:49:30;;;;;;;4.57;1.80;;;;;;;-3.46;100.00;93826.41;5021374;28;20049;-73
2021/12/10 04:51:57;;;;;;;4.45;1.38;;;;;;;-3.38;100.00;93823.47;5020532;28;20091;-73
2021/12/10 04:54:25;;;;;;;3.80;1.27;;;;;;;-3.32;100.00;93827.75;5019983;28;20056;-73
2021/12/10 04:56:52;;;;;;;3.13;1.20;;;;;;;-3.33;100.00;93826.19;5011124;28;20030;-73
2021/12/10 04:59:20;;;;;;;2.97;1.40;;;;;;;-3.32;100.00;93826.97;5009732;28;20496;-73
2021/12/10 05:01:46;;;;;;;2.63;1.27;;;;;;;-3.34;100.00;93823.84;5008700;28;20049;-73
2021/12/10 05:04:13;;;;;;;1.50;1.23;;;;;;;-3.38;100.00;93813.19;5003506;28;20486;-73
2021/12/10 05:06:39;;;;;;;4.68;1.70;;;;;;;-3.53;100.00;93805.94;5010652;28;20042;-73
2021/12/10 05:09:08;;;;;;;3.88;1.30;;;;;;;-3.56;100.00;93790.16;4990121;28;20057;-73
2021/12/10 05:11:34;;;;;;;1.95;1.20;;;;;;;-3.44;100.00;93767.81;5008674;28;20041;-72
2021/12/10 05:14:00;;;;;;;1.92;1.42;;;;;;;-3.56;100.00;93754.16;5005753;28;20050;-73
2021/12/10 05:16:27;;;;;;;2.30;1.25;;;;;;;-3.49;100.00;93760.00;5013390;28;20050;-73
2021/12/10 05:18:59;;;;;;;5.57;2.35;;;;;;;-3.44;100.00;93775.53;5001607;28;20065;-73
2021/12/10 05:21:27;;;;;;;11.45;4.10;;;;;;;-3.45;100.00;93781.66;5006412;28;20040;-73
2021/12/10 05:23:54;;;;;;;21.88;6.38;;;;;;;-3.45;100.00;93775.75;5010135;28;20450;-73
2021/12/10 05:26:19;;;;;;;26.13;6.68;;;;;;;-3.50;100.00;93774.63;5003023;28;20141;-72
2021/12/10 05:28:45;;;;;;;7.53;2.80;;;;;;;-3.53;100.00;93779.44;4999616;28;20543;-72
2021/12/10 05:31:12;;;;;;;3.83;1.67;;;;;;;-3.58;100.00;93766.47;4997635;28;20053;-72
2021/12/10 05:33:37;;;;;;;3.88;1.65;;;;;;;-3.66;100.00;93770.94;5008183;28;20048;-73
2021/12/10 05:36:04;;;;;;;3.78;1.45;;;;;;;-3.70;100.00;93764.66;4998315;28;20042;-72
2021/12/10 05:38:31;;;;;;;2.40;1.30;;;;;;;-3.78;100.00;93762.44;5008507;28;20053;-72
2021/12/10 05:40:58;;;;;;;2.63;1.38;;;;;;;-3.77;100.00;93758.84;4993026;28;20139;-72
2021/12/10 05:43:24;;;;;;;3.17;1.75;;;;;;;-3.81;100.00;93744.88;5011441;28;20136;-72
2021/12/10 05:45:51;;;;;;;2.60;1.50;;;;;;;-3.80;100.00;93743.88;4982849;28;20035;-72
2021/12/10 05:48:17;;;;;;;3.03;1.60;;;;;;;-3.74;100.00;93735.28;5011221;28;20053;-72
2021/12/10 05:50:44;;;;;;;5.30;1.63;;;;;;;-3.76;100.00;93733.97;5010726;28;20491;-72
2021/12/10 05:53:09;;;;;;;3.75;1.50;;;;;;;-3.85;100.00;93736.03;5009984;28;20616;-73
2021/12/10 05:55:38;;;;;;;3.08;1.58;;;;;;;-3.88;100.00;93736.50;4998791;28;20042;-73
2021/12/10 05:58:04;;;;;;;4.13;1.60;;;;;;;-3.92;100.00;93730.22;5005473;28;20052;-72
2021/12/10 06:00:41;;;;;;;2.85;1.20;;;;;;;-3.88;100.00;93728.78;5028626;28;20046;-72
2021/12/10 06:03:07;;;;;;;3.22;1.55;;;;;;;-3.96;100.00;93721.44;5009750;28;20053;-73
2021/12/10 06:05:34;;;;;;;2.17;1.60;;;;;;;-4.03;100.00;93719.72;5010613;28;20602;-72
2021/12/10 06:08:00;;;;;;;2.70;1.50;;;;;;;-4.11;100.00;93722.63;5003977;28;20123;-73
2021/12/10 06:10:26;;;;;;;3.65;2.00;;;;;;;-4.21;100.00;93718.06;5008716;28;20057;-73
2021/12/10 06:12:53;;;;;;;2.72;1.63;;;;;;;-4.51;100.00;93715.53;5004946;28;20042;-73
2021/12/10 06:15:22;;;;;;;7.40;1.45;;;;;;;-4.60;100.00;93704.78;5013391;28;20038;-73
2021/12/10 06:17:49;;;;;;;2.60;1.60;;;;;;;-4.45;100.00;93691.53;5004075;28;20064;-73
2021/12/10 06:20:19;;;;;;;2.65;1.65;;;;;;;-4.68;100.00;93688.91;5007356;28;20553;-73
2021/12/10 06:22:45;;;;;;;6.68;1.65;;;;;;;-4.63;100.00;93689.03;5008339;28;20050;-73
2021/12/10 06:25:11;;;;;;;3.90;1.67;;;;;;;-4.37;100.00;93686.09;5006678;28;20100;-73
2021/12/10 06:27:44;;;;;;;2.67;1.48;;;;;;;-4.20;100.00;93683.63;4990134;28;20500;-73
2021/12/10 06:30:12;;;;;;;4.88;1.65;;;;;;;-4.31;100.00;93678.50;5008278;28;20046;-73
2021/12/10 06:32:38;;;;;;;2.85;1.70;;;;;;;-4.48;100.00;93671.44;5006034;28;20092;-73
2021/12/10 06:35:03;;;;;;;8.20;1.90;;;;;;;-4.39;100.00;93664.97;5006261;28;20046;-73
2021/12/10 06:37:29;;;;;;;3.17;1.67;;;;;;;-4.32;100.00;93664.06;5007366;28;20038;-73
2021/12/10 06:39:55;;;;;;;2.20;1.40;;;;;;;-4.36;100.00;93654.25;5013611;28;20525;-73
2021/12/10 06:42:20;;;;;;;2.58;1.60;;;;;;;-4.40;100.00;93658.25;5008189;28;20049;-73
2021/12/10 06:44:46;;;;;;;4.78;2.00;;;;;;;-4.31;100.00;93650.25;4981825;28;20451;-73
2021/12/10 06:47:11;;;;;;;4.60;2.22;;;;;;;-4.43;100.00;93643.31;5001826;28;20052;-73
2021/12/10 06:49:37;;;;;;;5.60;2.58;;;;;;;-4.38;100.00;93642.66;5011291;28;20437;-73
2021/12/10 06:52:03;;;;;;;7.97;2.78;;;;;;;-4.41;100.00;93640.50;4990256;28;20050;-73
2021/12/10 06:54:29;;;;;;;7.45;2.90;;;;;;;-4.43;100.00;93651.00;4988759;28;20439;-73
2021/12/10 06:56:56;;;;;;;8.52;3.58;;;;;;;-4.48;100.00;93656.03;5000948;28;20034;-73
2021/12/10 06:59:25;;;;;;;6.53;3.15;;;;;;;-4.43;100.00;93638.16;5013343;28;20149;-73
2021/12/10 07:01:51;;;;;;;8.23;3.60;;;;;;;-4.44;100.00;93636.63;5007963;28;20042;-73
2021/12/10 07:04:17;;;;;;;11.30;4.57;;;;;;;-4.50;100.00;93627.22;5009813;28;20125;-73
2021/12/10 07:06:46;;;;;;;8.38;3.92;;;;;;;-4.46;100.00;93615.50;5009911;28;20146;-73
2021/12/10 07:09:16;;;;;;;7.75;3.75;;;;;;;-4.50;100.00;93616.94;5012529;28;20042;-73
2021/12/10 07:11:42;;;;;;;14.20;4.47;;;;;;;-4.49;100.00;93618.53;4990951;28;20046;-73
2021/12/10 07:14:09;;;;;;;11.45;5.10;;;;;;;-4.50;100.00;93606.69;5005619;28;20038;-73
2021/12/10 07:16:36;;;;;;;12.10;5.25;;;;;;;-4.45;100.00;93609.38;5009496;28;20072;-73
2021/12/10 07:19:05;;;;;;;10.98;4.70;;;;;;;-4.46;100.00;93610.38;5010848;28;20049;-73
2021/12/10 07:21:32;;;;;;;9.63;4.63;;;;;;;-4.44;100.00;93610.94;5007753;28;20038;-72
2021/12/10 07:24:01;;;;;;;10.27;4.97;;;;;;;-4.51;100.00;93600.00;5006664;28;20089;-73
2021/12/10 07:26:28;;;;;;;10.00;5.18;;;;;;;-4.47;100.00;93595.97;4985416;28;20049;-72
2021/12/10 07:28:53;;;;;;;10.35;4.97;;;;;;;-4.53;100.00;93586.59;5006914;28;20076;-73
2021/12/10 07:31:19;;;;;;;15.25;6.13;;;;;;;-4.45;100.00;93599.09;5019241;28;20049;-73
2021/12/10 07:33:45;;;;;;;15.77;5.22;;;;;;;-4.48;100.00;93599.56;4988889;28;20038;-73
2021/12/10 07:36:10;;;;;;;14.05;5.35;;;;;;;-4.46;100.00;93602.66;5006641;28;20091;-73
2021/12/10 07:38:36;;;;;;;12.57;6.13;;;;;;;-4.41;100.00;93602.78;5004856;28;20058;-72
2021/12/10 07:41:02;;;;;;;14.82;5.38;;;;;;;-4.32;100.00;93603.25;5010806;28;20049;-73
2021/12/10 07:43:28;;;;;;;12.15;5.68;;;;;;;-4.31;100.00;93598.88;5003830;28;20042;-73
2021/12/10 07:45:54;;;;;;;14.40;6.15;;;;;;;-4.27;100.00;93590.50;5006484;28;20069;-74
2021/12/10 07:48:23;;;;;;;14.80;5.75;;;;;;;-4.26;100.00;93575.88;4982640;28;20581;-75
2021/12/10 07:50:58;;;;;;;14.00;5.63;;;;;;;-4.20;100.00;93574.97;5007441;28;20092;-74
2021/12/10 07:53:30;;;;;;;13.48;5.72;;;;;;;-4.37;100.00;93575.66;5005618;28;20115;-74
2021/12/10 07:55:58;;;;;;;14.07;6.38;;;;;;;-4.44;100.00;93569.88;5004611;28;20048;-74
2021/12/10 07:58:24;;;;;;;19.42;5.35;;;;;;;-4.20;100.00;93562.91;5009221;28;20050;-76
2021/12/10 08:00:50;;;;;;;16.02;6.15;;;;;;;-4.12;100.00;93563.56;5007539;28;20049;-76
2021/12/10 08:03:17;;;;;;;11.77;4.88;;;;;;;-4.02;100.00;93566.38;5008096;28;20397;-74
2021/12/10 08:05:43;;;;;;;12.45;5.45;;;;;;;-3.94;100.00;93565.22;5001385;28;20042;-74
2021/12/10 08:08:10;;;;;;;13.13;5.65;;;;;;;-3.88;100.00;93561.75;5009195;28;20053;-74
2021/12/10 08:10:36;;;;;;;13.57;6.00;;;;;;;-3.85;100.00;93551.00;5010585;28;20096;-74
2021/12/10 08:13:03;;;;;;;14.50;5.68;;;;;;;-3.77;100.00;93547.31;4988953;28;20054;-74
2021/12/10 08:15:28;;;;;;;13.50;5.57;;;;;;;-3.69;100.00;93550.28;5004981;28;20033;-75
2021/12/10 08:17:54;;;;;;;15.60;5.60;;;;;;;-3.67;100.00;93553.41;5015896;28;20089;-75
2021/12/10 08:20:23;;;;;;;9.35;4.47;;;;;;;-3.60;100.00;93547.38;5012037;28;20492;-74
2021/12/10 08:22:50;;;;;;;9.65;4.63;;;;;;;-3.59;100.00;93538.63;5000580;28;20636;-75
2021/12/10 08:25:17;;;;;;;7.30;4.07;;;;;;;-3.55;100.00;93540.53;5015772;28;20467;-76
2021/12/10 08:27:43;;;;;;;9.23;4.13;;;;;;;-3.44;100.00;93544.06;5020145;28;20056;-75
2021/12/10 08:30:12;;;;;;;12.25;5.20;;;;;;;-3.38;100.00;93540.56;5002992;28;20041;-76
2021/12/10 08:32:38;;;;;;;10.35;4.43;;;;;;;-3.36;99.60;93538.53;5004623;28;20095;-74
2021/12/10 08:35:07;;;;;;;7.70;3.92;;;;;;;-3.36;99.91;93528.25;5003584;28;20060;-74
2021/12/10 08:37:32;;;;;;;7.05;3.38;;;;;;;-3.23;99.55;93531.53;5001496;28;20066;-74
2021/12/10 08:39:58;;;;;;;8.15;3.70;;;;;;;-3.13;99.32;93526.59;5000862;28;20415;-75
2021/12/10 08:42:25;;;;;;;5.47;2.90;;;;;;;-3.06;98.98;93531.56;5008801;28;20159;-74
2021/12/10 08:44:50;;;;;;;8.23;3.40;;;;;;;-3.02;99.47;93515.41;5009910;28;20037;-76
2021/12/10 08:47:16;;;;;;;7.40;3.72;;;;;;;-3.06;100.00;93516.91;5012639;28;20076;-75
2021/12/10 08:49:42;;;;;;;6.80;3.55;;;;;;;-3.01;98.87;93522.13;5006994;28;20060;-76
2021/12/10 08:52:09;;;;;;;5.25;2.58;;;;;;;-3.04;97.54;93514.88;5003468;28;20488;-75
2021/12/10 08:54:36;;;;;;;5.25;2.80;;;;;;;-2.99;98.70;93516.75;4995805;28;20763;-76
2021/12/10 08:57:04;;;;;;;8.07;3.47;;;;;;;-2.92;98.38;93517.38;4990423;28;20072;-76
2021/12/10 08:59:30;;;;;;;7.65;3.08;;;;;;;-3.00;97.02;93510.84;5011447;28;20415;-75
2021/12/10 09:02:00;;;;;;;5.75;3.28;;;;;;;-3.01;98.58;93504.13;5011281;28;20049;-75
2021/12/10 09:04:29;;;;;;;8.02;3.78;;;;;;;-2.82;97.92;93501.31;5013817;28;20079;-75
2021/12/10 09:07:00;;;;;;;6.35;3.30;;;;;;;-2.71;96.75;93508.16;4999854;28;20037;-75
2021/12/10 09:09:27;;;;;;;6.57;2.85;;;;;;;-2.63;96.45;93504.41;5011876;28;20038;-75
2021/12/10 09:11:55;;;;;;;5.97;3.22;;;;;;;-2.57;97.25;93497.53;5008679;28;20046;-75
2021/12/10 09:14:27;;;;;;;6.78;3.30;;;;;;;-2.50;96.72;93498.13;5011894;28;20052;-74
2021/12/10 09:16:55;;;;;;;6.28;2.85;;;;;;;-2.37;95.73;93487.53;4994655;28;20107;-75
2021/12/10 09:19:22;;;;;;;6.30;3.08;;;;;;;-2.27;95.99;93482.50;4990845;28;20435;-75
2021/12/10 09:21:48;;;;;;;6.25;3.15;;;;;;;-2.19;96.36;93472.78;5021248;28;20056;-76
2021/12/10 09:24:18;;;;;;;10.38;3.42;;;;;;;-2.04;94.89;93472.97;5013899;28;20045;-76
2021/12/10 09:26:49;;;;;;;7.57;3.38;;;;;;;-1.92;93.64;93468.44;5007459;28;20049;-75
2021/12/10 09:29:17;;;;;;;6.28;3.30;;;;;;;-1.82;93.71;93472.94;5006278;28;20050;-75
2021/12/10 09:31:42;;;;;;;8.63;4.13;;;;;;;-1.52;93.37;93455.41;4989843;28;20124;-73
2021/12/10 09:34:11;;;;;;;7.93;3.60;;;;;;;-1.35;92.99;93456.13;5010336;28;20045;-74
2021/12/10 09:36:38;;;;;;;9.25;4.15;;;;;;;-0.90;90.26;93462.66;4987971;28;20748;-73
2021/12/10 09:39:06;;;;;;;8.02;3.22;;;;;;;0.56;83.41;93460.44;5011076;28;20525;-74
2021/12/10 09:41:32;;;;;;;9.18;3.58;;;;;;;1.13;79.42;93453.44;5007349;28;20403;-75
2021/12/10 09:43:58;;;;;;;6.45;3.40;;;;;;;2.02;76.23;93441.84;5007453;28;20045;-74
2021/12/10 09:46:24;;;;;;;7.38;2.90;;;;;;;0.97;77.50;93454.50;5005572;28;20046;-74
2021/12/10 09:48:50;;;;;;;6.85;2.80;;;;;;;-0.35;84.41;93446.94;4988320;28;20054;-72
2021/12/10 09:51:27;;;;;;;6.38;3.30;;;;;;;-0.80;87.35;93445.69;5007847;28;20116;-72
2021/12/10 09:53:57;;;;;;;5.95;3.00;;;;;;;0.74;82.77;93443.63;5007846;28;20038;-72
2021/12/10 09:56:24;;;;;;;5.13;2.90;;;;;;;2.03;79.35;93427.81;4994792;28;20057;-74
2021/12/10 09:58:53;;;;;;;5.50;2.90;;;;;;;-0.16;82.69;93438.75;4995636;28;20049;-73
2021/12/10 10:01:29;;;;;;;4.60;2.40;;;;;;;-0.99;88.22;93432.34;4990096;28;20688;-73
2021/12/10 10:04:01;;;;;;;4.82;2.58;;;;;;;-1.19;87.59;93420.88;5006733;28;20164;-72
2021/12/10 10:06:31;;;;;;;7.22;3.13;;;;;;;-1.30;88.94;93422.59;5005287;28;20050;-73
2021/12/10 10:08:57;;;;;;;5.10;2.60;;;;;;;-1.21;90.62;93415.16;4994600;28;20045;-73
2021/12/10 10:11:29;;;;;;;5.20;2.67;;;;;;;-1.31;89.73;93415.88;4985635;28;20042;-72
2021/12/10 10:13:56;;;;;;;8.32;3.25;;;;;;;-1.28;90.71;93410.25;5009389;28;20060;-73
2021/12/10 10:16:24;;;;;;;5.95;2.90;;;;;;;-1.35;92.95;93399.34;5019094;28;20053;-74
2021/12/10 10:18:51;;;;;;;6.78;3.25;;;;;;;-1.36;92.16;93392.63;4999512;28;20453;-73
2021/12/10 10:21:24;;;;;;;6.75;3.38;;;;;;;-1.26;90.66;93387.53;5010208;28;20402;-73
2021/12/10 10:23:50;;;;;;;7.10;3.03;;;;;;;-1.35;90.56;93378.72;4989260;28;20053;-73
2021/12/10 10:26:25;;;;;;;6.85;3.17;;;;;;;-1.33;91.18;93371.47;5000195;28;20046;-73
2021/12/10 10:28:52;;;;;;;5.70;3.33;;;;;;;-1.35;90.99;93352.91;5005331;28;20046;-75
2021/12/10 10:31:21;;;;;;;6.22;3.15;;;;;;;-1.34;91.53;93344.13;5023141;28;20052;-73
2021/12/10 10:33:51;;;;;;;6.50;2.83;;;;;;;-1.18;91.52;93332.09;4996024;28;20045;-74
2021/12/10 10:36:22;;;;;;;8.13;3.42;;;;;;;-0.94;91.04;93329.91;4989408;28;20041;-74
2021/12/10 10:39:15;;;;;;;4.75;2.63;;;;;;;-0.94;89.95;93322.16;5006400;28;20045;-74
2021/12/10 10:41:45;;;;;;;7.82;2.97;;;;;;;-1.02;91.43;93309.72;4999065;28;20042;-74
2021/12/10 10:44:12;;;;;;;6.45;3.40;;;;;;;-0.92;92.25;93304.63;5008248;28;20786;-73
2021/12/10 10:46:37;;;;;;;6.70;3.63;;;;;;;-0.87;90.80;93312.38;5005286;28;20050;-73
2021/12/10 10:49:05;;;;;;;7.32;3.05;;;;;;;-0.82;89.10;93310.84;4990442;28;20779;-74
2021/12/10 10:51:37;;;;;;;6.35;3.20;;;;;;;-0.66;91.24;93317.63;4986213;28;20783;-74
2021/12/10 10:54:07;;;;;;;6.82;3.25;;;;;;;-0.70;89.18;93319.16;4984582;28;20041;-72
2021/12/10 10:56:39;;;;;;;7.15;3.25;;;;;;;-0.77;89.86;93331.53;4990278;28;20046;-74
2021/12/10 10:59:31;;;;;;;6.68;3.42;;;;;;;-0.92;89.63;93340.75;5010305;28;20061;-73
2021/12/10 11:02:07;;;;;;;7.45;3.50;;;;;;;-0.93;89.59;93334.03;5005368;28;20053;-75
2021/12/10 11:04:36;;;;;;;8.45;3.30;;;;;;;-0.91;92.12;93326.03;5007650;28;20068;-74
2021/12/10 11:07:24;;;;;;;7.50;3.30;;;;;;;-0.81;89.53;93325.31;4993539;28;20045;-74
2021/12/10 11:09:55;;;;;;;12.02;3.53;;;;;;;-0.85;90.09;93330.19;4989803;28;20116;-74
2021/12/10 11:12:27;;;;;;;5.72;3.30;;;;;;;-0.55;92.14;93326.97;4996258;28;20042;-72
2021/12/10 11:14:57;;;;;;;8.77;4.05;;;;;;;-0.28;91.31;93328.59;5006363;28;20045;-73
2021/12/10 11:17:29;;;;;;;9.32;2.95;;;;;;;-0.04;86.73;93323.72;5024162;28;20064;-71
2021/12/10 11:20:00;;;;;;;7.53;3.70;;;;;;;0.27;85.66;93317.81;5020423;28;20077;-72
2021/12/10 11:22:28;;;;;;;5.68;3.22;;;;;;;0.31;86.10;93308.50;5011061;28;20060;-73
2021/12/10 11:25:11;;;;;;;7.97;3.35;;;;;;;0.22;85.00;93300.47;4992796;28;20037;-73
2021/12/10 11:27:40;;;;;;;10.23;3.58;;;;;;;0.19;87.16;93295.03;5017430;28;20075;-72
2021/12/10 11:30:18;;;;;;;8.27;3.42;;;;;;;0.14;86.55;93288.84;5010945;28;20572;-73
2021/12/10 11:33:12;;;;;;;7.15;3.05;;;;;;;-0.08;87.71;93291.66;4993223;28;20041;-73
2021/12/10 11:35:48;;;;;;;6.90;3.00;;;;;;;0.70;85.25;93274.28;4986839;28;20058;-72
2021/12/10 11:38:28;;;;;;;6.78;3.30;;;;;;;1.15;83.35;93277.81;5008395;28;20270;-73
2021/12/10 11:41:06;;;;;;;7.65;3.55;;;;;;;1.18;82.92;93269.50;5001179;28;20070;-74